sensor_id;sensor_type;location;lat;lon;timestamp;pressure;altitude;pressure_sealevel;temperature;humidity
65010;BME280;51556;50.002;22.014;2023-02-13T00:00:57;101178.77;;;0.02;69.54
65010;BME280;51556;50.002;22.014;2023-02-13T00:03:23;101177.91;;;0.06;69.75
65010;BME280;51556;50.002;22.014;2023-02-13T00:05:48;101177.50;;;0.12;69.85
65010;BME280;51556;50.002;22.014;2023-02-13T00:08:13;101174.73;;;0.19;69.61
65010;BME280;51556;50.002;22.014;2023-02-13T00:10:39;101171.88;;;0.25;69.62
65010;BME280;51556;50.002;22.014;2023-02-13T00:13:04;101166.00;;;0.32;69.57
65010;BME280;51556;50.002;22.014;2023-02-13T00:15:30;101165.52;;;0.42;69.71
65010;BME280;51556;50.002;22.014;2023-02-13T00:17:56;101166.42;;;0.47;69.58
65010;BME280;51556;50.002;22.014;2023-02-13T00:20:21;101167.08;;;0.53;69.66
65010;BME280;51556;50.002;22.014;2023-02-13T00:22:46;101170.94;;;0.62;69.79
65010;BME280;51556;50.002;22.014;2023-02-13T00:25:12;101169.76;;;0.72;69.68
65010;BME280;51556;50.002;22.014;2023-02-13T00:27:37;101173.67;;;0.82;69.57
65010;BME280;51556;50.002;22.014;2023-02-13T00:30:03;101175.23;;;0.90;69.68
65010;BME280;51556;50.002;22.014;2023-02-13T00:32:29;101162.67;;;0.92;69.60
65010;BME280;51556;50.002;22.014;2023-02-13T00:34:55;101163.89;;;0.96;69.66
65010;BME280;51556;50.002;22.014;2023-02-13T00:37:21;101163.25;;;0.98;69.60
65010;BME280;51556;50.002;22.014;2023-02-13T00:39:46;101158.50;;;1.00;69.55
65010;BME280;51556;50.002;22.014;2023-02-13T00:42:12;101156.95;;;1.00;69.48
65010;BME280;51556;50.002;22.014;2023-02-13T00:44:37;101152.08;;;1.00;69.51
65010;BME280;51556;50.002;22.014;2023-02-13T00:47:03;101151.43;;;1.01;69.72
65010;BME280;51556;50.002;22.014;2023-02-13T00:49:28;101152.56;;;1.03;69.68
65010;BME280;51556;50.002;22.014;2023-02-13T00:51:54;101148.53;;;1.06;69.62
65010;BME280;51556;50.002;22.014;2023-02-13T00:54:19;101148.27;;;1.09;69.79
65010;BME280;51556;50.002;22.014;2023-02-13T00:56:44;101144.64;;;1.13;69.69
65010;BME280;51556;50.002;22.014;2023-02-13T00:59:10;101144.05;;;1.16;69.66
65010;BME280;51556;50.002;22.014;2023-02-13T01:01:35;101140.45;;;1.17;69.71
65010;BME280;51556;50.002;22.014;2023-02-13T01:04:01;101140.73;;;1.19;69.73
65010;BME280;51556;50.002;22.014;2023-02-13T01:06:26;101133.64;;;1.20;69.74
65010;BME280;51556;50.002;22.014;2023-02-13T01:08:51;101133.27;;;1.23;69.75
65010;BME280;51556;50.002;22.014;2023-02-13T01:11:17;101127.79;;;1.26;69.69
65010;BME280;51556;50.002;22.014;2023-02-13T01:13:44;101123.88;;;1.23;69.64
65010;BME280;51556;50.002;22.014;2023-02-13T01:16:10;101122.24;;;1.21;69.89
65010;BME280;51556;50.002;22.014;2023-02-13T01:18:35;101120.00;;;1.18;70.05
65010;BME280;51556;50.002;22.014;2023-02-13T01:21:04;101115.44;;;1.16;69.83
65010;BME280;51556;50.002;22.014;2023-02-13T01:23:32;101113.86;;;1.20;69.97
65010;BME280;51556;50.002;22.014;2023-02-13T01:25:58;101109.47;;;1.23;70.14
65010;BME280;51556;50.002;22.014;2023-02-13T01:28:24;101109.62;;;1.27;69.90
65010;BME280;51556;50.002;22.014;2023-02-13T01:30:54;101107.73;;;1.31;70.08
65010;BME280;51556;50.002;22.014;2023-02-13T01:33:21;101097.40;;;1.38;70.10
65010;BME280;51556;50.002;22.014;2023-02-13T01:35:47;101096.55;;;1.43;70.13
65010;BME280;51556;50.002;22.014;2023-02-13T01:38:13;101098.39;;;1.45;69.95
65010;BME280;51556;50.002;22.014;2023-02-13T01:40:44;101101.09;;;1.48;70.11
65010;BME280;51556;50.002;22.014;2023-02-13T01:43:11;101096.20;;;1.52;70.00
65010;BME280;51556;50.002;22.014;2023-02-13T01:45:36;101093.11;;;1.53;70.08
65010;BME280;51556;50.002;22.014;2023-02-13T01:48:05;101087.91;;;1.53;70.16
65010;BME280;51556;50.002;22.014;2023-02-13T01:50:37;101084.82;;;1.54;70.12
65010;BME280;51556;50.002;22.014;2023-02-13T01:53:16;101080.93;;;1.57;70.09
65010;BME280;51556;50.002;22.014;2023-02-13T01:55:51;101079.88;;;1.56;70.43
65010;BME280;51556;50.002;22.014;2023-02-13T01:58:21;101079.02;;;1.57;70.34
65010;BME280;51556;50.002;22.014;2023-02-13T02:00:48;101073.15;;;1.58;70.26
65010;BME280;51556;50.002;22.014;2023-02-13T02:03:37;101072.33;;;1.59;70.41
65010;BME280;51556;50.002;22.014;2023-02-13T02:06:06;101065.95;;;1.60;70.54
65010;BME280;51556;50.002;22.014;2023-02-13T02:08:33;101064.61;;;1.61;70.37
65010;BME280;51556;50.002;22.014;2023-02-13T02:11:05;101063.44;;;1.62;70.23
65010;BME280;51556;50.002;22.014;2023-02-13T02:13:32;101060.88;;;1.63;70.49
65010;BME280;51556;50.002;22.014;2023-02-13T02:15:58;101059.64;;;1.67;70.53
65010;BME280;51556;50.002;22.014;2023-02-13T02:18:23;101052.84;;;1.71;70.30
65010;BME280;51556;50.002;22.014;2023-02-13T02:45:27;101050.98;;;1.81;70.99
65010;BME280;51556;50.002;22.014;2023-02-13T02:54:32;101050.23;;;1.90;70.89
65010;BME280;51556;50.002;22.014;2023-02-13T02:57:27;101051.66;;;1.96;70.60
65010;BME280;51556;50.002;22.014;2023-02-13T03:00:16;101049.61;;;1.96;70.55
65010;BME280;51556;50.002;22.014;2023-02-13T03:03:04;101051.72;;;1.97;70.66
65010;BME280;51556;50.002;22.014;2023-02-13T03:05:49;101053.38;;;2.00;70.83
65010;BME280;51556;50.002;22.014;2023-02-13T03:08:35;101053.89;;;2.00;70.80
65010;BME280;51556;50.002;22.014;2023-02-13T03:11:20;101053.16;;;1.99;70.95
65010;BME280;51556;50.002;22.014;2023-02-13T03:14:06;101055.52;;;2.02;70.80
65010;BME280;51556;50.002;22.014;2023-02-13T03:16:33;101056.73;;;2.07;70.83
65010;BME280;51556;50.002;22.014;2023-02-13T03:19:37;101058.83;;;2.12;70.84
65010;BME280;51556;50.002;22.014;2023-02-13T03:26:14;101059.95;;;2.19;70.71
65010;BME280;51556;50.002;22.014;2023-02-13T03:28:58;101058.28;;;2.20;70.82
65010;BME280;51556;50.002;22.014;2023-02-13T03:31:51;101053.31;;;2.23;70.88
65010;BME280;51556;50.002;22.014;2023-02-13T03:34:29;101053.24;;;2.26;70.61
65010;BME280;51556;50.002;22.014;2023-02-13T03:37:29;101053.91;;;2.31;70.80
65010;BME280;51556;50.002;22.014;2023-02-13T03:40:39;101050.41;;;2.34;70.78
65010;BME280;51556;50.002;22.014;2023-02-13T03:43:29;101049.20;;;2.35;70.52
65010;BME280;51556;50.002;22.014;2023-02-13T03:45:58;101053.69;;;2.34;70.46
65010;BME280;51556;50.002;22.014;2023-02-13T03:48:30;101048.52;;;2.35;70.41
65010;BME280;51556;50.002;22.014;2023-02-13T03:51:20;101048.45;;;2.38;70.50
65010;BME280;51556;50.002;22.014;2023-02-13T03:53:52;101045.85;;;2.38;70.52
65010;BME280;51556;50.002;22.014;2023-02-13T03:56:21;101048.60;;;2.37;70.41
65010;BME280;51556;50.002;22.014;2023-02-13T03:59:07;101043.75;;;2.38;70.71
65010;BME280;51556;50.002;22.014;2023-02-13T04:01:53;101043.90;;;2.37;70.63
65010;BME280;51556;50.002;22.014;2023-02-13T04:04:36;101035.36;;;2.36;70.73
65010;BME280;51556;50.002;22.014;2023-02-13T04:07:10;101033.39;;;2.35;70.63
65010;BME280;51556;50.002;22.014;2023-02-13T04:09:54;101031.31;;;2.35;70.57
65010;BME280;51556;50.002;22.014;2023-02-13T04:15:18;101025.59;;;2.35;70.66
65010;BME280;51556;50.002;22.014;2023-02-13T04:17:53;101027.27;;;2.39;70.41
65010;BME280;51556;50.002;22.014;2023-02-13T04:20:19;101030.24;;;2.39;70.56
65010;BME280;51556;50.002;22.014;2023-02-13T04:22:46;101031.16;;;2.40;70.37
65010;BME280;51556;50.002;22.014;2023-02-13T04:25:16;101030.95;;;2.39;70.79
65010;BME280;51556;50.002;22.014;2023-02-13T04:27:42;101033.23;;;2.40;70.70
65010;BME280;51556;50.002;22.014;2023-02-13T04:30:08;101035.73;;;2.43;70.51
65010;BME280;51556;50.002;22.014;2023-02-13T04:32:34;101032.55;;;2.46;70.67
65010;BME280;51556;50.002;22.014;2023-02-13T04:34:59;101030.77;;;2.49;70.66
65010;BME280;51556;50.002;22.014;2023-02-13T04:37:24;101031.54;;;2.51;70.60
65010;BME280;51556;50.002;22.014;2023-02-13T04:39:50;101025.71;;;2.54;70.55
65010;BME280;51556;50.002;22.014;2023-02-13T04:42:15;101022.70;;;2.52;70.56
65010;BME280;51556;50.002;22.014;2023-02-13T04:44:41;101019.80;;;2.54;70.55
65010;BME280;51556;50.002;22.014;2023-02-13T04:47:06;101022.87;;;2.57;70.77
65010;BME280;51556;50.002;22.014;2023-02-13T04:49:32;101027.79;;;2.59;70.90
65010;BME280;51556;50.002;22.014;2023-02-13T04:51:57;101025.58;;;2.61;70.56
65010;BME280;51556;50.002;22.014;2023-02-13T04:54:23;101025.83;;;2.57;70.69
65010;BME280;51556;50.002;22.014;2023-02-13T04:56:48;101029.70;;;2.59;70.64
65010;BME280;51556;50.002;22.014;2023-02-13T04:59:13;101029.33;;;2.64;70.77
65010;BME280;51556;50.002;22.014;2023-02-13T05:01:39;101027.98;;;2.71;70.77
65010;BME280;51556;50.002;22.014;2023-02-13T05:04:04;101026.48;;;2.73;70.65
65010;BME280;51556;50.002;22.014;2023-02-13T05:06:30;101026.30;;;2.78;70.76
65010;BME280;51556;50.002;22.014;2023-02-13T05:08:55;101026.19;;;2.80;70.55
65010;BME280;51556;50.002;22.014;2023-02-13T05:11:21;101029.05;;;2.82;70.84
65010;BME280;51556;50.002;22.014;2023-02-13T05:13:46;101027.89;;;2.84;70.75
65010;BME280;51556;50.002;22.014;2023-02-13T05:16:11;101029.84;;;2.80;70.95
65010;BME280;51556;50.002;22.014;2023-02-13T05:18:37;101030.83;;;2.78;70.81
65010;BME280;51556;50.002;22.014;2023-02-13T05:21:03;101033.98;;;2.79;71.29
65010;BME280;51556;50.002;22.014;2023-02-13T05:23:47;101031.77;;;2.80;71.33
65010;BME280;51556;50.002;22.014;2023-02-13T05:26:12;101030.94;;;2.81;71.37
65010;BME280;51556;50.002;22.014;2023-02-13T05:28:38;101030.73;;;2.80;71.79
65010;BME280;51556;50.002;22.014;2023-02-13T05:31:22;101029.44;;;2.78;71.96
65010;BME280;51556;50.002;22.014;2023-02-13T05:33:47;101033.73;;;2.81;72.15
65010;BME280;51556;50.002;22.014;2023-02-13T05:36:13;101033.08;;;2.83;72.43
65010;BME280;51556;50.002;22.014;2023-02-13T05:38:38;101032.10;;;2.85;72.56
65010;BME280;51556;50.002;22.014;2023-02-13T05:41:05;101035.13;;;2.87;72.68
65010;BME280;51556;50.002;22.014;2023-02-13T05:43:31;101040.77;;;2.89;72.65
65010;BME280;51556;50.002;22.014;2023-02-13T05:46:06;101041.35;;;2.86;72.74
65010;BME280;51556;50.002;22.014;2023-02-13T05:48:33;101045.13;;;2.84;73.39
65010;BME280;51556;50.002;22.014;2023-02-13T05:50:58;101042.34;;;2.84;72.87
65010;BME280;51556;50.002;22.014;2023-02-13T05:53:24;101041.98;;;2.84;73.61
65010;BME280;51556;50.002;22.014;2023-02-13T05:55:49;101038.35;;;2.84;73.66
65010;BME280;51556;50.002;22.014;2023-02-13T05:58:17;101038.69;;;2.84;73.76
65010;BME280;51556;50.002;22.014;2023-02-13T06:00:43;101036.04;;;2.83;73.80
65010;BME280;51556;50.002;22.014;2023-02-13T06:03:08;101038.45;;;2.82;74.45
65010;BME280;51556;50.002;22.014;2023-02-13T06:05:34;101036.76;;;2.78;74.12
65010;BME280;51556;50.002;22.014;2023-02-13T06:07:59;101036.14;;;2.76;74.40
65010;BME280;51556;50.002;22.014;2023-02-13T06:10:25;101039.98;;;2.76;74.31
65010;BME280;51556;50.002;22.014;2023-02-13T06:12:50;101036.77;;;2.79;74.36
65010;BME280;51556;50.002;22.014;2023-02-13T06:15:16;101034.73;;;2.80;74.56
65010;BME280;51556;50.002;22.014;2023-02-13T06:17:41;101036.74;;;2.83;74.49
65010;BME280;51556;50.002;22.014;2023-02-13T06:20:07;101035.77;;;2.85;74.52
65010;BME280;51556;50.002;22.014;2023-02-13T06:22:33;101032.24;;;2.84;74.78
65010;BME280;51556;50.002;22.014;2023-02-13T06:24:58;101036.52;;;2.82;74.85
65010;BME280;51556;50.002;22.014;2023-02-13T06:27:23;101041.58;;;2.87;74.81
65010;BME280;51556;50.002;22.014;2023-02-13T06:29:49;101042.48;;;2.94;75.03
65010;BME280;51556;50.002;22.014;2023-02-13T06:32:14;101044.85;;;2.96;74.94
65010;BME280;51556;50.002;22.014;2023-02-13T06:34:39;101041.70;;;2.96;75.13
65010;BME280;51556;50.002;22.014;2023-02-13T06:37:05;101043.69;;;2.99;75.06
65010;BME280;51556;50.002;22.014;2023-02-13T06:39:30;101046.48;;;3.05;75.11
65010;BME280;51556;50.002;22.014;2023-02-13T06:41:55;101044.19;;;3.09;75.12
65010;BME280;51556;50.002;22.014;2023-02-13T06:44:21;101039.26;;;3.13;75.36
65010;BME280;51556;50.002;22.014;2023-02-13T06:46:46;101040.75;;;3.16;75.13
65010;BME280;51556;50.002;22.014;2023-02-13T06:49:12;101046.66;;;3.16;75.11
65010;BME280;51556;50.002;22.014;2023-02-13T06:51:37;101054.61;;;3.20;75.19
65010;BME280;51556;50.002;22.014;2023-02-13T06:54:02;101055.29;;;3.24;75.36
65010;BME280;51556;50.002;22.014;2023-02-13T06:56:31;101054.34;;;3.27;75.48
65010;BME280;51556;50.002;22.014;2023-02-13T06:58:57;101048.75;;;3.27;75.16
65010;BME280;51556;50.002;22.014;2023-02-13T07:01:22;101045.61;;;3.27;75.57
65010;BME280;51556;50.002;22.014;2023-02-13T07:03:48;101038.91;;;3.29;75.45
65010;BME280;51556;50.002;22.014;2023-02-13T07:06:17;101037.94;;;3.32;75.84
65010;BME280;51556;50.002;22.014;2023-02-13T07:08:44;101031.21;;;3.41;75.97
65010;BME280;51556;50.002;22.014;2023-02-13T07:11:18;101032.19;;;3.44;75.37
65010;BME280;51556;50.002;22.014;2023-02-13T07:13:44;101033.70;;;3.48;75.87
65010;BME280;51556;50.002;22.014;2023-02-13T07:16:10;101033.05;;;3.50;75.97
65010;BME280;51556;50.002;22.014;2023-02-13T07:18:35;101032.79;;;3.53;75.85
65010;BME280;51556;50.002;22.014;2023-02-13T07:21:00;101033.83;;;3.58;75.66
65010;BME280;51556;50.002;22.014;2023-02-13T07:23:26;101035.14;;;3.61;75.86
65010;BME280;51556;50.002;22.014;2023-02-13T07:25:51;101039.13;;;3.66;75.66
65010;BME280;51556;50.002;22.014;2023-02-13T07:28:17;101038.98;;;3.74;75.85
65010;BME280;51556;50.002;22.014;2023-02-13T07:30:42;101040.09;;;3.82;75.58
65010;BME280;51556;50.002;22.014;2023-02-13T07:33:08;101044.81;;;3.88;75.83
65010;BME280;51556;50.002;22.014;2023-02-13T07:35:34;101043.05;;;3.94;75.15
65010;BME280;51556;50.002;22.014;2023-02-13T07:38:04;101044.48;;;4.01;75.55
65010;BME280;51556;50.002;22.014;2023-02-13T07:40:30;101049.64;;;4.12;75.22
65010;BME280;51556;50.002;22.014;2023-02-13T07:42:59;101042.96;;;4.17;75.25
65010;BME280;51556;50.002;22.014;2023-02-13T07:45:24;101043.41;;;4.27;75.33
65010;BME280;51556;50.002;22.014;2023-02-13T07:47:50;101042.92;;;4.34;75.21
65010;BME280;51556;50.002;22.014;2023-02-13T07:50:16;101044.40;;;4.37;75.02
65010;BME280;51556;50.002;22.014;2023-02-13T07:52:41;101047.78;;;4.47;75.00
65010;BME280;51556;50.002;22.014;2023-02-13T07:55:07;101047.92;;;4.53;74.77
65010;BME280;51556;50.002;22.014;2023-02-13T07:57:33;101049.88;;;4.60;74.76
65010;BME280;51556;50.002;22.014;2023-02-13T07:59:58;101053.09;;;4.70;74.93
65010;BME280;51556;50.002;22.014;2023-02-13T08:02:24;101051.48;;;4.76;74.87
65010;BME280;51556;50.002;22.014;2023-02-13T08:04:49;101046.69;;;4.79;74.89
65010;BME280;51556;50.002;22.014;2023-02-13T08:07:15;101047.81;;;4.82;74.93
65010;BME280;51556;50.002;22.014;2023-02-13T08:09:44;101043.77;;;4.89;75.11
65010;BME280;51556;50.002;22.014;2023-02-13T08:12:29;101040.14;;;4.91;75.35
65010;BME280;51556;50.002;22.014;2023-02-13T08:14:55;101041.61;;;4.93;75.21
65010;BME280;51556;50.002;22.014;2023-02-13T08:17:21;101040.44;;;4.88;75.62
65010;BME280;51556;50.002;22.014;2023-02-13T08:19:46;101041.77;;;4.93;75.51
65010;BME280;51556;50.002;22.014;2023-02-13T08:22:11;101043.72;;;4.94;75.81
65010;BME280;51556;50.002;22.014;2023-02-13T08:24:37;101046.27;;;4.91;75.54
65010;BME280;51556;50.002;22.014;2023-02-13T08:27:02;101047.05;;;4.94;75.80
65010;BME280;51556;50.002;22.014;2023-02-13T08:29:28;101041.39;;;4.98;75.62
65010;BME280;51556;50.002;22.014;2023-02-13T08:31:53;101043.16;;;5.00;75.60
65010;BME280;51556;50.002;22.014;2023-02-13T08:34:31;101042.80;;;4.98;75.97
65010;BME280;51556;50.002;22.014;2023-02-13T08:36:56;101039.82;;;4.98;75.69
65010;BME280;51556;50.002;22.014;2023-02-13T08:39:22;101039.63;;;4.98;75.72
65010;BME280;51556;50.002;22.014;2023-02-13T08:41:47;101042.35;;;5.02;75.59
65010;BME280;51556;50.002;22.014;2023-02-13T08:44:13;101040.38;;;5.00;75.67
65010;BME280;51556;50.002;22.014;2023-02-13T08:46:38;101043.94;;;5.02;75.80
65010;BME280;51556;50.002;22.014;2023-02-13T08:49:03;101046.61;;;4.98;75.74
65010;BME280;51556;50.002;22.014;2023-02-13T08:51:29;101042.75;;;4.97;75.78
65010;BME280;51556;50.002;22.014;2023-02-13T08:53:57;101040.11;;;4.96;76.28
65010;BME280;51556;50.002;22.014;2023-02-13T08:56:23;101041.94;;;4.99;76.02
65010;BME280;51556;50.002;22.014;2023-02-13T08:58:48;101043.21;;;4.95;75.98
65010;BME280;51556;50.002;22.014;2023-02-13T09:01:15;101042.97;;;4.99;76.25
65010;BME280;51556;50.002;22.014;2023-02-13T09:03:40;101041.80;;;5.01;75.98
65010;BME280;51556;50.002;22.014;2023-02-13T09:06:06;101035.27;;;5.05;76.17
65010;BME280;51556;50.002;22.014;2023-02-13T09:08:34;101031.70;;;5.02;75.91
65010;BME280;51556;50.002;22.014;2023-02-13T09:11:01;101031.91;;;5.10;75.85
65010;BME280;51556;50.002;22.014;2023-02-13T09:13:29;101023.55;;;5.20;75.46
65010;BME280;51556;50.002;22.014;2023-02-13T09:15:58;101030.67;;;5.26;75.57
65010;BME280;51556;50.002;22.014;2023-02-13T09:18:24;101027.41;;;5.28;75.21
65010;BME280;51556;50.002;22.014;2023-02-13T09:21:17;101028.30;;;5.36;75.20
65010;BME280;51556;50.002;22.014;2023-02-13T09:23:41;101031.47;;;5.38;74.83
65010;BME280;51556;50.002;22.014;2023-02-13T09:26:08;101028.36;;;5.31;75.20
65010;BME280;51556;50.002;22.014;2023-02-13T09:28:35;101035.76;;;5.34;74.86
65010;BME280;51556;50.002;22.014;2023-02-13T09:31:09;101034.56;;;5.28;75.08
65010;BME280;51556;50.002;22.014;2023-02-13T09:33:37;101037.46;;;5.25;75.10
65010;BME280;51556;50.002;22.014;2023-02-13T09:36:07;101033.20;;;5.29;74.95
65010;BME280;51556;50.002;22.014;2023-02-13T09:38:33;101028.54;;;5.24;75.19
65010;BME280;51556;50.002;22.014;2023-02-13T09:41:07;101025.91;;;5.16;75.47
65010;BME280;51556;50.002;22.014;2023-02-13T09:43:41;101021.59;;;5.17;75.16
65010;BME280;51556;50.002;22.014;2023-02-13T09:46:24;101017.95;;;5.19;75.55
65010;BME280;51556;50.002;22.014;2023-02-13T09:48:54;101013.77;;;5.27;75.21
65010;BME280;51556;50.002;22.014;2023-02-13T09:51:21;101015.38;;;5.29;75.18
65010;BME280;51556;50.002;22.014;2023-02-13T09:53:55;101015.38;;;5.29;75.01
65010;BME280;51556;50.002;22.014;2023-02-13T09:59:41;100993.11;;;5.32;74.93
65010;BME280;51556;50.002;22.014;2023-02-13T10:02:36;100993.48;;;5.26;75.05
65010;BME280;51556;50.002;22.014;2023-02-13T10:08:10;100992.77;;;5.33;74.76
65010;BME280;51556;50.002;22.014;2023-02-13T10:10:51;100989.95;;;5.40;74.77
65010;BME280;51556;50.002;22.014;2023-02-13T10:16:16;100991.34;;;5.47;74.33
65010;BME280;51556;50.002;22.014;2023-02-13T10:18:48;100981.91;;;5.48;74.41
65010;BME280;51556;50.002;22.014;2023-02-13T10:23:46;100977.42;;;5.59;74.25
65010;BME280;51556;50.002;22.014;2023-02-13T10:26:20;100979.29;;;5.65;73.72
65010;BME280;51556;50.002;22.014;2023-02-13T10:35:59;100972.40;;;6.05;73.32
65010;BME280;51556;50.002;22.014;2023-02-13T10:38:28;100971.30;;;6.11;72.82
65010;BME280;51556;50.002;22.014;2023-02-13T10:43:48;100963.56;;;6.19;72.04
65010;BME280;51556;50.002;22.014;2023-02-13T11:00:51;100941.26;;;6.55;70.81
65010;BME280;51556;50.002;22.014;2023-02-13T11:03:24;100943.05;;;6.57;70.69
65010;BME280;51556;50.002;22.014;2023-02-13T11:05:50;100948.27;;;6.54;70.19
65010;BME280;51556;50.002;22.014;2023-02-13T11:08:32;100939.19;;;6.56;70.12
65010;BME280;51556;50.002;22.014;2023-02-13T11:10:58;100937.02;;;6.61;70.13
65010;BME280;51556;50.002;22.014;2023-02-13T11:13:25;100936.91;;;6.69;69.87
65010;BME280;51556;50.002;22.014;2023-02-13T11:16:05;100933.16;;;6.75;69.88
65010;BME280;51556;50.002;22.014;2023-02-13T11:18:42;100930.94;;;6.79;69.75
65010;BME280;51556;50.002;22.014;2023-02-13T11:21:20;100936.41;;;6.81;69.09
65010;BME280;51556;50.002;22.014;2023-02-13T11:23:51;100936.60;;;6.82;69.46
65010;BME280;51556;50.002;22.014;2023-02-13T11:26:26;100937.70;;;6.86;69.61
65010;BME280;51556;50.002;22.014;2023-02-13T11:28:56;100937.56;;;7.00;70.09
65010;BME280;51556;50.002;22.014;2023-02-13T11:33:48;100940.05;;;7.16;68.75
65010;BME280;51556;50.002;22.014;2023-02-13T11:36:16;100941.45;;;7.28;69.04
65010;BME280;51556;50.002;22.014;2023-02-13T11:38:42;100941.39;;;7.37;68.47
65010;BME280;51556;50.002;22.014;2023-02-13T11:41:10;100936.02;;;7.43;68.06
65010;BME280;51556;50.002;22.014;2023-02-13T11:43:42;100935.34;;;7.46;67.76
65010;BME280;51556;50.002;22.014;2023-02-13T11:46:29;100936.21;;;7.45;67.00
65010;BME280;51556;50.002;22.014;2023-02-13T11:49:00;100934.11;;;7.45;66.97
65010;BME280;51556;50.002;22.014;2023-02-13T11:51:38;100934.77;;;7.27;66.62
65010;BME280;51556;50.002;22.014;2023-02-13T11:54:04;100932.77;;;7.09;67.03
65010;BME280;51556;50.002;22.014;2023-02-13T11:56:51;100936.59;;;7.06;67.33
65010;BME280;51556;50.002;22.014;2023-02-13T11:59:21;100931.13;;;7.04;67.44
65010;BME280;51556;50.002;22.014;2023-02-13T12:02:01;100930.81;;;7.06;67.25
65010;BME280;51556;50.002;22.014;2023-02-13T12:04:26;100927.52;;;6.95;67.07
65010;BME280;51556;50.002;22.014;2023-02-13T12:09:27;100919.77;;;7.06;67.28
65010;BME280;51556;50.002;22.014;2023-02-13T12:11:57;100912.85;;;7.12;66.95
65010;BME280;51556;50.002;22.014;2023-02-13T12:14:26;100910.80;;;7.16;67.18
65010;BME280;51556;50.002;22.014;2023-02-13T12:17:18;100909.65;;;7.21;67.20
65010;BME280;51556;50.002;22.014;2023-02-13T12:26:25;100910.54;;;7.52;66.27
65010;BME280;51556;50.002;22.014;2023-02-13T12:29:13;100906.70;;;7.54;65.98
65010;BME280;51556;50.002;22.014;2023-02-13T12:31:54;100899.60;;;7.60;66.03
65010;BME280;51556;50.002;22.014;2023-02-13T12:34:53;100890.59;;;7.70;65.97
65010;BME280;51556;50.002;22.014;2023-02-13T12:37:42;100887.36;;;7.79;65.07
65010;BME280;51556;50.002;22.014;2023-02-13T12:45:55;100881.00;;;7.93;63.84
65010;BME280;51556;50.002;22.014;2023-02-13T12:53:41;100869.30;;;8.20;63.33
65010;BME280;51556;50.002;22.014;2023-02-13T12:56:18;100860.87;;;8.17;62.40
65010;BME280;51556;50.002;22.014;2023-02-13T13:07:16;100859.69;;;8.41;61.92
65010;BME280;51556;50.002;22.014;2023-02-13T13:23:14;100860.47;;;8.10;61.86
65010;BME280;51556;50.002;22.014;2023-02-13T13:28:24;100861.95;;;8.00;62.30
65010;BME280;51556;50.002;22.014;2023-02-13T13:30:52;100864.30;;;8.08;61.56
65010;BME280;51556;50.002;22.014;2023-02-13T13:33:20;100857.58;;;8.24;60.96
65010;BME280;51556;50.002;22.014;2023-02-13T13:36:10;100861.65;;;8.28;61.14
65010;BME280;51556;50.002;22.014;2023-02-13T13:44:15;100870.29;;;8.09;61.13
65010;BME280;51556;50.002;22.014;2023-02-13T13:46:55;100863.58;;;7.85;60.58
65010;BME280;51556;50.002;22.014;2023-02-13T13:49:36;100863.10;;;7.72;61.09
65010;BME280;51556;50.002;22.014;2023-02-13T13:52:10;100864.45;;;7.66;61.90
65010;BME280;51556;50.002;22.014;2023-02-13T13:54:36;100863.20;;;7.65;61.94
65010;BME280;51556;50.002;22.014;2023-02-13T14:07:33;100859.27;;;7.40;64.46
65010;BME280;51556;50.002;22.014;2023-02-13T14:09:59;100851.19;;;7.23;65.05
65010;BME280;51556;50.002;22.014;2023-02-13T14:14:51;100842.86;;;7.16;65.35
65010;BME280;51556;50.002;22.014;2023-02-13T14:20:36;100840.72;;;7.13;65.54
65010;BME280;51556;50.002;22.014;2023-02-13T14:23:16;100841.15;;;7.03;66.03
65010;BME280;51556;50.002;22.014;2023-02-13T14:25:42;100834.45;;;7.00;66.21
65010;BME280;51556;50.002;22.014;2023-02-13T14:30:46;100833.30;;;6.92;66.68
65010;BME280;51556;50.002;22.014;2023-02-13T14:33:26;100838.06;;;6.82;67.03
65010;BME280;51556;50.002;22.014;2023-02-13T14:36:02;100830.15;;;6.81;67.07
65010;BME280;51556;50.002;22.014;2023-02-13T14:38:29;100826.91;;;6.74;67.28
65010;BME280;51556;50.002;22.014;2023-02-13T14:40:55;100818.29;;;6.70;67.44
65010;BME280;51556;50.002;22.014;2023-02-13T14:48:42;100816.20;;;6.70;67.67
65010;BME280;51556;50.002;22.014;2023-02-13T14:51:33;100818.80;;;6.67;67.82
65010;BME280;51556;50.002;22.014;2023-02-13T14:54:04;100815.14;;;6.67;67.89
65010;BME280;51556;50.002;22.014;2023-02-13T14:56:32;100817.42;;;6.71;67.70
65010;BME280;51556;50.002;22.014;2023-02-13T14:59:25;100816.92;;;6.72;67.63
65010;BME280;51556;50.002;22.014;2023-02-13T15:01:52;100816.20;;;6.56;68.56
65010;BME280;51556;50.002;22.014;2023-02-13T15:06:58;100807.71;;;6.50;68.59
65010;BME280;51556;50.002;22.014;2023-02-13T15:11:57;100810.38;;;6.53;68.68
65010;BME280;51556;50.002;22.014;2023-02-13T15:17:09;100797.39;;;6.50;68.80
65010;BME280;51556;50.002;22.014;2023-02-13T15:19:43;100791.33;;;6.42;69.36
65010;BME280;51556;50.002;22.014;2023-02-13T15:22:21;100786.59;;;6.42;69.17
65010;BME280;51556;50.002;22.014;2023-02-13T15:24:51;100789.70;;;6.38;69.30
65010;BME280;51556;50.002;22.014;2023-02-13T15:27:19;100785.27;;;6.35;69.17
65010;BME280;51556;50.002;22.014;2023-02-13T15:30:02;100785.38;;;6.28;69.41
65010;BME280;51556;50.002;22.014;2023-02-13T15:32:40;100780.16;;;6.31;69.22
65010;BME280;51556;50.002;22.014;2023-02-13T15:35:21;100781.63;;;6.37;69.36
65010;BME280;51556;50.002;22.014;2023-02-13T15:37:57;100780.65;;;6.42;69.00
65010;BME280;51556;50.002;22.014;2023-02-13T15:40:26;100777.94;;;6.35;69.32
65010;BME280;51556;50.002;22.014;2023-02-13T15:42:53;100776.88;;;6.35;69.13
65010;BME280;51556;50.002;22.014;2023-02-13T15:45:20;100775.83;;;6.35;69.24